sensor_id;sensor_type;location;lat;lon;timestamp;temperature;humidity
33881;DHT22;20172;47.530;10.256;2024-02-15T00:00:04;8.20;99.90
33881;DHT22;20172;47.530;10.256;2024-02-15T00:02:29;8.30;99.90
33881;DHT22;20172;47.530;10.256;2024-02-15T00:04:55;8.30;99.90
33881;DHT22;20172;47.530;10.256;2024-02-15T00:07:21;8.30;99.90
33881;DHT22;20172;47.530;10.256;2024-02-15T00:09:48;8.30;99.90
33881;DHT22;20172;47.530;10.256;2024-02-15T00:12:14;8.30;99.90
33881;DHT22;20172;47.530;10.256;2024-02-15T00:14:39;8.20;99.90
33881;DHT22;20172;47.530;10.256;2024-02-15T00:17:05;8.20;99.90
33881;DHT22;20172;47.530;10.256;2024-02-15T00:19:31;8.10;99.90
33881;DHT22;20172;47.530;10.256;2024-02-15T00:21:56;8.10;99.90
33881;DHT22;20172;47.530;10.256;2024-02-15T00:24:22;8.20;99.90
33881;DHT22;20172;47.530;10.256;2024-02-15T00:26:49;8.20;99.90
33881;DHT22;20172;47.530;10.256;2024-02-15T00:29:14;8.20;99.90
33881;DHT22;20172;47.530;10.256;2024-02-15T00:31:40;8.20;99.90
33881;DHT22;20172;47.530;10.256;2024-02-15T00:34:06;8.20;99.90
33881;DHT22;20172;47.530;10.256;2024-02-15T00:36:31;8.20;99.90
33881;DHT22;20172;47.530;10.256;2024-02-15T00:39:00;8.20;99.90
33881;DHT22;20172;47.530;10.256;2024-02-15T00:41:25;8.20;99.90
33881;DHT22;20172;47.530;10.256;2024-02-15T00:43:51;8.10;99.90
33881;DHT22;20172;47.530;10.256;2024-02-15T00:46:16;7.90;99.90
33881;DHT22;20172;47.530;10.256;2024-02-15T00:48:42;7.80;99.90
33881;DHT22;20172;47.530;10.256;2024-02-15T00:51:08;7.80;99.90
33881;DHT22;20172;47.530;10.256;2024-02-15T00:53:34;7.70;99.90
33881;DHT22;20172;47.530;10.256;2024-02-15T00:55:59;7.70;99.90
33881;DHT22;20172;47.530;10.256;2024-02-15T00:58:25;7.60;99.90
33881;DHT22;20172;47.530;10.256;2024-02-15T01:00:52;7.60;99.90
33881;DHT22;20172;47.530;10.256;2024-02-15T01:03:18;7.60;99.90
33881;DHT22;20172;47.530;10.256;2024-02-15T01:05:44;7.60;99.90
33881;DHT22;20172;47.530;10.256;2024-02-15T01:08:10;7.60;99.90
33881;DHT22;20172;47.530;10.256;2024-02-15T01:10:36;7.60;99.90
33881;DHT22;20172;47.530;10.256;2024-02-15T01:13:02;7.70;99.90
33881;DHT22;20172;47.530;10.256;2024-02-15T01:15:27;7.80;99.90
33881;DHT22;20172;47.530;10.256;2024-02-15T01:17:53;7.80;99.90
33881;DHT22;20172;47.530;10.256;2024-02-15T01:20:19;7.80;99.90
33881;DHT22;20172;47.530;10.256;2024-02-15T01:22:46;7.80;99.90
33881;DHT22;20172;47.530;10.256;2024-02-15T01:25:12;7.80;99.90
33881;DHT22;20172;47.530;10.256;2024-02-15T01:27:38;7.70;99.90
33881;DHT22;20172;47.530;10.256;2024-02-15T01:30:04;7.70;99.90
33881;DHT22;20172;47.530;10.256;2024-02-15T01:32:30;7.60;99.90
33881;DHT22;20172;47.530;10.256;2024-02-15T01:34:56;7.50;99.90
33881;DHT22;20172;47.530;10.256;2024-02-15T01:37:22;7.50;99.90
33881;DHT22;20172;47.530;10.256;2024-02-15T01:39:47;7.50;99.90
33881;DHT22;20172;47.530;10.256;2024-02-15T01:42:13;7.40;99.90
33881;DHT22;20172;47.530;10.256;2024-02-15T01:44:42;7.40;99.90
33881;DHT22;20172;47.530;10.256;2024-02-15T01:47:10;7.40;99.90
33881;DHT22;20172;47.530;10.256;2024-02-15T01:49:36;7.30;99.90
33881;DHT22;20172;47.530;10.256;2024-02-15T01:52:02;7.40;99.90
33881;DHT22;20172;47.530;10.256;2024-02-15T01:54:28;7.40;99.90
33881;DHT22;20172;47.530;10.256;2024-02-15T01:56:53;7.40;99.90
33881;DHT22;20172;47.530;10.256;2024-02-15T01:59:19;7.50;99.90
33881;DHT22;20172;47.530;10.256;2024-02-15T02:01:47;7.60;99.90
33881;DHT22;20172;47.530;10.256;2024-02-15T02:04:12;7.50;99.90
33881;DHT22;20172;47.530;10.256;2024-02-15T02:06:41;7.40;99.90
33881;DHT22;20172;47.530;10.256;2024-02-15T02:09:10;7.30;99.90
33881;DHT22;20172;47.530;10.256;2024-02-15T02:11:38;7.20;99.90
33881;DHT22;20172;47.530;10.256;2024-02-15T02:14:03;7.10;99.90
33881;DHT22;20172;47.530;10.256;2024-02-15T02:16:29;7.00;99.90
33881;DHT22;20172;47.530;10.256;2024-02-15T02:18:58;7.00;99.90
33881;DHT22;20172;47.530;10.256;2024-02-15T02:21:23;7.00;99.90
33881;DHT22;20172;47.530;10.256;2024-02-15T02:23:52;7.00;99.90
33881;DHT22;20172;47.530;10.256;2024-02-15T02:26:18;7.00;99.90
33881;DHT22;20172;47.530;10.256;2024-02-15T02:28:46;7.00;99.90
33881;DHT22;20172;47.530;10.256;2024-02-15T02:31:12;7.10;99.90
33881;DHT22;20172;47.530;10.256;2024-02-15T02:33:38;7.10;99.90
33881;DHT22;20172;47.530;10.256;2024-02-15T02:36:03;7.10;99.90
33881;DHT22;20172;47.530;10.256;2024-02-15T02:38:29;7.10;99.90
33881;DHT22;20172;47.530;10.256;2024-02-15T02:40:54;7.20;99.90
33881;DHT22;20172;47.530;10.256;2024-02-15T02:43:20;7.20;99.90
33881;DHT22;20172;47.530;10.256;2024-02-15T02:45:45;7.10;99.90
33881;DHT22;20172;47.530;10.256;2024-02-15T02:48:11;7.00;99.90
33881;DHT22;20172;47.530;10.256;2024-02-15T02:50:37;6.80;99.90
33881;DHT22;20172;47.530;10.256;2024-02-15T02:53:03;6.80;99.90
33881;DHT22;20172;47.530;10.256;2024-02-15T02:55:28;6.80;99.90
33881;DHT22;20172;47.530;10.256;2024-02-15T02:57:54;6.80;99.90
33881;DHT22;20172;47.530;10.256;2024-02-15T03:00:20;6.90;99.90
33881;DHT22;20172;47.530;10.256;2024-02-15T03:02:47;6.90;99.90
33881;DHT22;20172;47.530;10.256;2024-02-15T03:05:12;6.80;99.90
33881;DHT22;20172;47.530;10.256;2024-02-15T03:07:41;6.90;99.90
33881;DHT22;20172;47.530;10.256;2024-02-15T03:10:07;6.80;99.90
33881;DHT22;20172;47.530;10.256;2024-02-15T03:12:36;6.80;99.90
33881;DHT22;20172;47.530;10.256;2024-02-15T03:15:02;6.80;99.90
33881;DHT22;20172;47.530;10.256;2024-02-15T03:17:28;6.80;99.90
33881;DHT22;20172;47.530;10.256;2024-02-15T03:19:59;6.80;99.90
33881;DHT22;20172;47.530;10.256;2024-02-15T03:22:27;6.80;99.90
33881;DHT22;20172;47.530;10.256;2024-02-15T03:24:54;6.90;99.90
33881;DHT22;20172;47.530;10.256;2024-02-15T03:27:20;6.90;99.90
33881;DHT22;20172;47.530;10.256;2024-02-15T03:29:48;6.90;99.90
33881;DHT22;20172;47.530;10.256;2024-02-15T03:32:14;6.90;99.90
33881;DHT22;20172;47.530;10.256;2024-02-15T03:34:39;6.80;99.90
33881;DHT22;20172;47.530;10.256;2024-02-15T03:37:05;6.60;99.90
33881;DHT22;20172;47.530;10.256;2024-02-15T03:39:30;6.50;99.90
33881;DHT22;20172;47.530;10.256;2024-02-15T03:41:56;6.50;99.90
33881;DHT22;20172;47.530;10.256;2024-02-15T03:44:23;6.40;99.90
33881;DHT22;20172;47.530;10.256;2024-02-15T03:46:51;6.40;99.90
33881;DHT22;20172;47.530;10.256;2024-02-15T03:49:20;6.30;99.90
33881;DHT22;20172;47.530;10.256;2024-02-15T03:51:47;6.30;99.90
33881;DHT22;20172;47.530;10.256;2024-02-15T03:54:13;6.40;99.90
33881;DHT22;20172;47.530;10.256;2024-02-15T03:56:51;6.40;99.90
33881;DHT22;20172;47.530;10.256;2024-02-15T03:59:21;6.50;99.90
33881;DHT22;20172;47.530;10.256;2024-02-15T04:01:47;6.60;99.90
33881;DHT22;20172;47.530;10.256;2024-02-15T04:04:13;6.60;99.90
33881;DHT22;20172;47.530;10.256;2024-02-15T04:06:39;6.60;99.90
33881;DHT22;20172;47.530;10.256;2024-02-15T04:09:06;6.40;99.90
33881;DHT22;20172;47.530;10.256;2024-02-15T04:11:32;6.30;99.90
33881;DHT22;20172;47.530;10.256;2024-02-15T04:13:59;6.10;99.90
33881;DHT22;20172;47.530;10.256;2024-02-15T04:16:24;6.00;99.90
33881;DHT22;20172;47.530;10.256;2024-02-15T04:18:50;6.00;99.90
33881;DHT22;20172;47.530;10.256;2024-02-15T04:21:16;5.90;99.90
33881;DHT22;20172;47.530;10.256;2024-02-15T04:23:45;5.90;99.90
33881;DHT22;20172;47.530;10.256;2024-02-15T04:26:11;5.90;99.90
33881;DHT22;20172;47.530;10.256;2024-02-15T04:28:39;5.90;99.90
33881;DHT22;20172;47.530;10.256;2024-02-15T04:31:05;6.00;99.90
33881;DHT22;20172;47.530;10.256;2024-02-15T04:33:36;6.00;99.90
33881;DHT22;20172;47.530;10.256;2024-02-15T04:36:02;6.10;99.90
33881;DHT22;20172;47.530;10.256;2024-02-15T04:38:32;6.10;99.90
33881;DHT22;20172;47.530;10.256;2024-02-15T04:41:00;6.10;99.90
33881;DHT22;20172;47.530;10.256;2024-02-15T04:43:26;6.10;99.90
33881;DHT22;20172;47.530;10.256;2024-02-15T04:45:51;6.10;99.90
33881;DHT22;20172;47.530;10.256;2024-02-15T04:48:17;5.90;99.90
33881;DHT22;20172;47.530;10.256;2024-02-15T04:50:44;5.80;99.90
33881;DHT22;20172;47.530;10.256;2024-02-15T04:53:10;5.70;99.90
33881;DHT22;20172;47.530;10.256;2024-02-15T04:55:36;5.50;99.90
33881;DHT22;20172;47.530;10.256;2024-02-15T04:58:02;5.40;99.90
33881;DHT22;20172;47.530;10.256;2024-02-15T05:00:29;5.30;99.90
33881;DHT22;20172;47.530;10.256;2024-02-15T05:02:55;5.20;99.90
33881;DHT22;20172;47.530;10.256;2024-02-15T05:05:21;5.10;99.90
33881;DHT22;20172;47.530;10.256;2024-02-15T05:07:47;5.10;99.90
33881;DHT22;20172;47.530;10.256;2024-02-15T05:10:14;5.00;99.90
33881;DHT22;20172;47.530;10.256;2024-02-15T05:12:41;4.90;99.90
33881;DHT22;20172;47.530;10.256;2024-02-15T05:15:08;4.80;99.90
33881;DHT22;20172;47.530;10.256;2024-02-15T05:17:37;4.80;99.90
33881;DHT22;20172;47.530;10.256;2024-02-15T05:20:06;4.90;99.90
33881;DHT22;20172;47.530;10.256;2024-02-15T05:22:37;4.90;99.90
33881;DHT22;20172;47.530;10.256;2024-02-15T05:25:04;5.00;99.90
33881;DHT22;20172;47.530;10.256;2024-02-15T05:27:31;5.00;99.90
33881;DHT22;20172;47.530;10.256;2024-02-15T05:29:56;5.00;99.90
33881;DHT22;20172;47.530;10.256;2024-02-15T05:32:22;5.00;99.90
33881;DHT22;20172;47.530;10.256;2024-02-15T05:34:47;5.00;99.90
33881;DHT22;20172;47.530;10.256;2024-02-15T05:37:14;5.00;99.90
33881;DHT22;20172;47.530;10.256;2024-02-15T05:39:41;4.90;99.90
33881;DHT22;20172;47.530;10.256;2024-02-15T05:42:06;4.80;99.90
33881;DHT22;20172;47.530;10.256;2024-02-15T05:44:33;4.70;99.90
33881;DHT22;20172;47.530;10.256;2024-02-15T05:47:00;4.70;99.90
33881;DHT22;20172;47.530;10.256;2024-02-15T05:49:25;4.80;99.90
33881;DHT22;20172;47.530;10.256;2024-02-15T05:51:51;4.80;99.90
33881;DHT22;20172;47.530;10.256;2024-02-15T05:54:18;4.80;99.90
33881;DHT22;20172;47.530;10.256;2024-02-15T05:56:44;4.90;99.90
33881;DHT22;20172;47.530;10.256;2024-02-15T05:59:09;4.90;99.90
33881;DHT22;20172;47.530;10.256;2024-02-15T06:01:39;5.00;99.90
33881;DHT22;20172;47.530;10.256;2024-02-15T06:04:06;5.00;99.90
33881;DHT22;20172;47.530;10.256;2024-02-15T06:06:34;4.90;99.90
33881;DHT22;20172;47.530;10.256;2024-02-15T06:08:59;4.90;99.90
33881;DHT22;20172;47.530;10.256;2024-02-15T06:11:25;4.80;99.90
33881;DHT22;20172;47.530;10.256;2024-02-15T06:13:51;4.80;99.90
33881;DHT22;20172;47.530;10.256;2024-02-15T06:16:17;4.70;99.90
33881;DHT22;20172;47.530;10.256;2024-02-15T06:18:43;4.80;99.90
33881;DHT22;20172;47.530;10.256;2024-02-15T06:21:08;4.80;99.90
33881;DHT22;20172;47.530;10.256;2024-02-15T06:23:34;4.80;99.90
33881;DHT22;20172;47.530;10.256;2024-02-15T06:26:01;4.80;99.90
33881;DHT22;20172;47.530;10.256;2024-02-15T06:28:28;4.70;99.90
33881;DHT22;20172;47.530;10.256;2024-02-15T06:31:13;4.60;99.90
33881;DHT22;20172;47.530;10.256;2024-02-15T06:33:57;4.50;99.90
33881;DHT22;20172;47.530;10.256;2024-02-15T06:36:48;4.50;99.90
33881;DHT22;20172;47.530;10.256;2024-02-15T06:39:32;4.40;99.90
33881;DHT22;20172;47.530;10.256;2024-02-15T06:42:06;4.50;99.90
33881;DHT22;20172;47.530;10.256;2024-02-15T06:44:32;4.60;99.90
33881;DHT22;20172;47.530;10.256;2024-02-15T06:46:57;4.60;99.90
33881;DHT22;20172;47.530;10.256;2024-02-15T06:49:23;4.70;99.90
33881;DHT22;20172;47.530;10.256;2024-02-15T06:51:52;4.80;99.90
33881;DHT22;20172;47.530;10.256;2024-02-15T06:54:18;4.90;99.90
33881;DHT22;20172;47.530;10.256;2024-02-15T06:56:46;4.90;99.90
33881;DHT22;20172;47.530;10.256;2024-02-15T06:59:12;5.00;99.90
33881;DHT22;20172;47.530;10.256;2024-02-15T07:01:43;5.00;99.90
33881;DHT22;20172;47.530;10.256;2024-02-15T07:04:09;4.90;99.90
33881;DHT22;20172;47.530;10.256;2024-02-15T07:06:38;4.90;99.90
33881;DHT22;20172;47.530;10.256;2024-02-15T07:09:04;4.90;99.90
33881;DHT22;20172;47.530;10.256;2024-02-15T07:11:31;5.10;99.90
33881;DHT22;20172;47.530;10.256;2024-02-15T07:13:57;5.30;99.90
33881;DHT22;20172;47.530;10.256;2024-02-15T07:16:22;5.40;99.90
33881;DHT22;20172;47.530;10.256;2024-02-15T07:18:48;5.50;99.90
33881;DHT22;20172;47.530;10.256;2024-02-15T07:21:14;5.40;99.90
33881;DHT22;20172;47.530;10.256;2024-02-15T07:23:42;5.40;99.90
33881;DHT22;20172;47.530;10.256;2024-02-15T07:26:08;5.40;99.90
33881;DHT22;20172;47.530;10.256;2024-02-15T07:28:34;5.40;99.90
33881;DHT22;20172;47.530;10.256;2024-02-15T07:30:59;5.50;99.90
33881;DHT22;20172;47.530;10.256;2024-02-15T07:33:28;5.60;99.90
33881;DHT22;20172;47.530;10.256;2024-02-15T07:35:54;5.80;99.90
33881;DHT22;20172;47.530;10.256;2024-02-15T07:38:19;5.90;99.90
33881;DHT22;20172;47.530;10.256;2024-02-15T07:40:51;6.30;99.90
33881;DHT22;20172;47.530;10.256;2024-02-15T07:43:16;6.60;99.90
33881;DHT22;20172;47.530;10.256;2024-02-15T07:45:42;7.00;99.90
33881;DHT22;20172;47.530;10.256;2024-02-15T07:48:08;7.50;99.90
33881;DHT22;20172;47.530;10.256;2024-02-15T07:50:33;8.10;99.90
33881;DHT22;20172;47.530;10.256;2024-02-15T07:52:59;8.90;99.90
33881;DHT22;20172;47.530;10.256;2024-02-15T07:55:24;9.60;99.90
33881;DHT22;20172;47.530;10.256;2024-02-15T07:57:50;10.00;99.90
33881;DHT22;20172;47.530;10.256;2024-02-15T08:00:16;10.30;99.90
33881;DHT22;20172;47.530;10.256;2024-02-15T08:02:42;10.60;99.90
33881;DHT22;20172;47.530;10.256;2024-02-15T08:05:12;11.20;99.90
33881;DHT22;20172;47.530;10.256;2024-02-15T08:07:41;11.90;99.90
33881;DHT22;20172;47.530;10.256;2024-02-15T08:10:07;12.50;99.90
33881;DHT22;20172;47.530;10.256;2024-02-15T08:12:44;12.90;99.90
33881;DHT22;20172;47.530;10.256;2024-02-15T08:15:11;13.60;99.90
33881;DHT22;20172;47.530;10.256;2024-02-15T08:17:40;14.10;99.90
33881;DHT22;20172;47.530;10.256;2024-02-15T08:20:09;14.50;99.90
33881;DHT22;20172;47.530;10.256;2024-02-15T08:22:35;14.70;99.90
33881;DHT22;20172;47.530;10.256;2024-02-15T08:25:05;14.50;99.90
33881;DHT22;20172;47.530;10.256;2024-02-15T08:27:31;13.90;99.90
33881;DHT22;20172;47.530;10.256;2024-02-15T08:29:57;13.20;99.90
33881;DHT22;20172;47.530;10.256;2024-02-15T08:32:23;12.60;99.90
33881;DHT22;20172;47.530;10.256;2024-02-15T08:34:49;12.10;99.90
33881;DHT22;20172;47.530;10.256;2024-02-15T08:37:15;11.70;99.90
33881;DHT22;20172;47.530;10.256;2024-02-15T08:39:41;11.40;99.90
33881;DHT22;20172;47.530;10.256;2024-02-15T08:42:10;11.20;99.90
33881;DHT22;20172;47.530;10.256;2024-02-15T08:44:36;10.80;99.90
33881;DHT22;20172;47.530;10.256;2024-02-15T08:47:02;10.50;99.90
33881;DHT22;20172;47.530;10.256;2024-02-15T08:49:27;10.30;99.90
33881;DHT22;20172;47.530;10.256;2024-02-15T08:51:56;10.20;99.90
33881;DHT22;20172;47.530;10.256;2024-02-15T08:54:21;10.30;99.90
33881;DHT22;20172;47.530;10.256;2024-02-15T08:56:47;10.60;99.90
33881;DHT22;20172;47.530;10.256;2024-02-15T08:59:12;10.80;99.90
33881;DHT22;20172;47.530;10.256;2024-02-15T09:01:40;11.10;99.90
33881;DHT22;20172;47.530;10.256;2024-02-15T09:04:06;11.40;99.90
33881;DHT22;20172;47.530;10.256;2024-02-15T09:06:31;11.50;99.90
33881;DHT22;20172;47.530;10.256;2024-02-15T09:08:57;11.80;99.90
33881;DHT22;20172;47.530;10.256;2024-02-15T09:11:29;12.10;99.90
33881;DHT22;20172;47.530;10.256;2024-02-15T09:13:55;12.40;99.90
33881;DHT22;20172;47.530;10.256;2024-02-15T09:16:20;12.90;99.90
33881;DHT22;20172;47.530;10.256;2024-02-15T09:18:47;13.60;99.90
33881;DHT22;20172;47.530;10.256;2024-02-15T09:21:12;14.40;99.90
33881;DHT22;20172;47.530;10.256;2024-02-15T09:23:38;15.20;99.90
33881;DHT22;20172;47.530;10.256;2024-02-15T09:26:04;16.00;99.90
33881;DHT22;20172;47.530;10.256;2024-02-15T09:28:29;16.60;99.00
33881;DHT22;20172;47.530;10.256;2024-02-15T09:30:56;17.10;97.40
33881;DHT22;20172;47.530;10.256;2024-02-15T09:33:24;17.60;95.20
33881;DHT22;20172;47.530;10.256;2024-02-15T09:35:51;18.20;93.70
33881;DHT22;20172;47.530;10.256;2024-02-15T09:38:16;19.00;92.20
33881;DHT22;20172;47.530;10.256;2024-02-15T09:40:42;20.20;90.60
33881;DHT22;20172;47.530;10.256;2024-02-15T09:43:09;21.30;85.30
33881;DHT22;20172;47.530;10.256;2024-02-15T09:45:35;22.40;79.20
33881;DHT22;20172;47.530;10.256;2024-02-15T09:48:03;23.30;73.40
33881;DHT22;20172;47.530;10.256;2024-02-15T09:50:31;24.10;69.80
33881;DHT22;20172;47.530;10.256;2024-02-15T09:52:58;25.00;67.00
33881;DHT22;20172;47.530;10.256;2024-02-15T09:55:24;25.90;63.80
33881;DHT22;20172;47.530;10.256;2024-02-15T09:57:50;26.90;59.40
33881;DHT22;20172;47.530;10.256;2024-02-15T10:00:16;27.30;57.80
33881;DHT22;20172;47.530;10.256;2024-02-15T10:02:49;27.70;57.30
33881;DHT22;20172;47.530;10.256;2024-02-15T10:05:17;28.20;55.60
33881;DHT22;20172;47.530;10.256;2024-02-15T10:07:43;28.40;54.70
33881;DHT22;20172;47.530;10.256;2024-02-15T10:10:21;28.60;53.70
33881;DHT22;20172;47.530;10.256;2024-02-15T10:12:47;28.70;52.60
33881;DHT22;20172;47.530;10.256;2024-02-15T10:15:31;28.80;51.70
33881;DHT22;20172;47.530;10.256;2024-02-15T10:17:58;28.80;50.80
33881;DHT22;20172;47.530;10.256;2024-02-15T10:20:26;28.80;50.90
33881;DHT22;20172;47.530;10.256;2024-02-15T10:22:53;28.80;51.00
33881;DHT22;20172;47.530;10.256;2024-02-15T10:25:20;28.90;51.50
33881;DHT22;20172;47.530;10.256;2024-02-15T10:27:45;29.30;51.60
33881;DHT22;20172;47.530;10.256;2024-02-15T10:30:17;29.70;50.70
33881;DHT22;20172;47.530;10.256;2024-02-15T10:32:43;29.60;50.00
33881;DHT22;20172;47.530;10.256;2024-02-15T10:35:10;29.90;49.40
33881;DHT22;20172;47.530;10.256;2024-02-15T10:37:35;30.50;48.20
33881;DHT22;20172;47.530;10.256;2024-02-15T10:40:04;31.00;47.40
33881;DHT22;20172;47.530;10.256;2024-02-15T10:42:33;31.40;46.60
33881;DHT22;20172;47.530;10.256;2024-02-15T10:45:01;31.80;45.90
33881;DHT22;20172;47.530;10.256;2024-02-15T10:47:30;32.20;44.90
33881;DHT22;20172;47.530;10.256;2024-02-15T10:49:55;32.30;43.90
33881;DHT22;20172;47.530;10.256;2024-02-15T10:52:23;32.40;44.70
33881;DHT22;20172;47.530;10.256;2024-02-15T10:54:52;32.50;43.50
33881;DHT22;20172;47.530;10.256;2024-02-15T10:57:21;32.70;43.70
33881;DHT22;20172;47.530;10.256;2024-02-15T11:04:54;34.40;42.20
33881;DHT22;20172;47.530;10.256;2024-02-15T11:07:25;34.90;41.70
33881;DHT22;20172;47.530;10.256;2024-02-15T11:09:53;35.00;41.20
33881;DHT22;20172;47.530;10.256;2024-02-15T11:12:19;35.20;41.10
33881;DHT22;20172;47.530;10.256;2024-02-15T11:14:45;35.70;40.30
33881;DHT22;20172;47.530;10.256;2024-02-15T11:17:11;36.50;39.70
33881;DHT22;20172;47.530;10.256;2024-02-15T11:22:14;36.90;38.00
33881;DHT22;20172;47.530;10.256;2024-02-15T11:24:47;36.70;38.30
33881;DHT22;20172;47.530;10.256;2024-02-15T11:27:23;36.90;38.10
33881;DHT22;20172;47.530;10.256;2024-02-15T11:29:50;37.30;37.80
33881;DHT22;20172;47.530;10.256;2024-02-15T11:33:02;37.40;37.50
33881;DHT22;20172;47.530;10.256;2024-02-15T11:35:11;37.70;37.50
33881;DHT22;20172;47.530;10.256;2024-02-15T11:40:18;38.40;36.90
33881;DHT22;20172;47.530;10.256;2024-02-15T11:42:46;39.10;36.60
33881;DHT22;20172;47.530;10.256;2024-02-15T11:45:13;39.50;35.70
33881;DHT22;20172;47.530;10.256;2024-02-15T11:47:40;39.90;35.40
33881;DHT22;20172;47.530;10.256;2024-02-15T11:50:14;40.30;34.80
33881;DHT22;20172;47.530;10.256;2024-02-15T11:52:43;40.60;34.80
33881;DHT22;20172;47.530;10.256;2024-02-15T11:55:09;40.90;34.30
33881;DHT22;20172;47.530;10.256;2024-02-15T11:57:41;41.20;33.70
33881;DHT22;20172;47.530;10.256;2024-02-15T12:00:22;41.30;33.90
33881;DHT22;20172;47.530;10.256;2024-02-15T12:03:07;41.30;34.10
33881;DHT22;20172;47.530;10.256;2024-02-15T12:06:00;41.10;34.00
33881;DHT22;20172;47.530;10.256;2024-02-15T12:08:47;41.10;33.90
33881;DHT22;20172;47.530;10.256;2024-02-15T12:11:32;41.10;33.70
33881;DHT22;20172;47.530;10.256;2024-02-15T12:14:16;40.90;33.60
33881;DHT22;20172;47.530;10.256;2024-02-15T12:17:01;40.60;33.80
33881;DHT22;20172;47.530;10.256;2024-02-15T12:19:47;39.70;33.00
33881;DHT22;20172;47.530;10.256;2024-02-15T12:22:14;39.80;33.50
33881;DHT22;20172;47.530;10.256;2024-02-15T12:24:40;38.90;33.60
33881;DHT22;20172;47.530;10.256;2024-02-15T12:27:06;38.60;33.60
33881;DHT22;20172;47.530;10.256;2024-02-15T12:29:32;38.50;33.80
33881;DHT22;20172;47.530;10.256;2024-02-15T12:32:00;38.70;32.90
33881;DHT22;20172;47.530;10.256;2024-02-15T12:34:26;38.40;32.90
33881;DHT22;20172;47.530;10.256;2024-02-15T12:37:04;38.10;33.80
33881;DHT22;20172;47.530;10.256;2024-02-15T12:39:29;37.70;34.50
33881;DHT22;20172;47.530;10.256;2024-02-15T12:41:57;37.00;34.40
33881;DHT22;20172;47.530;10.256;2024-02-15T12:44:22;36.30;34.90
33881;DHT22;20172;47.530;10.256;2024-02-15T12:46:55;36.30;34.60
33881;DHT22;20172;47.530;10.256;2024-02-15T12:51:50;36.10;34.50
33881;DHT22;20172;47.530;10.256;2024-02-15T12:54:19;35.90;34.40
33881;DHT22;20172;47.530;10.256;2024-02-15T12:56:46;35.70;34.50
33881;DHT22;20172;47.530;10.256;2024-02-15T12:59:14;35.00;35.10
33881;DHT22;20172;47.530;10.256;2024-02-15T13:01:39;33.90;36.20
33881;DHT22;20172;47.530;10.256;2024-02-15T13:04:05;33.30;36.70
33881;DHT22;20172;47.530;10.256;2024-02-15T13:06:31;32.90;37.50
33881;DHT22;20172;47.530;10.256;2024-02-15T13:09:00;31.90;38.30
33881;DHT22;20172;47.530;10.256;2024-02-15T13:11:27;30.90;39.50
33881;DHT22;20172;47.530;10.256;2024-02-15T13:13:53;30.50;40.30
33881;DHT22;20172;47.530;10.256;2024-02-15T13:16:20;30.90;40.00
33881;DHT22;20172;47.530;10.256;2024-02-15T13:18:48;31.40;39.40
33881;DHT22;20172;47.530;10.256;2024-02-15T13:21:14;32.00;38.90
33881;DHT22;20172;47.530;10.256;2024-02-15T13:23:40;32.80;38.50
33881;DHT22;20172;47.530;10.256;2024-02-15T13:26:05;33.50;38.20
33881;DHT22;20172;47.530;10.256;2024-02-15T13:28:33;33.80;37.90
33881;DHT22;20172;47.530;10.256;2024-02-15T13:30:58;34.20;37.80
33881;DHT22;20172;47.530;10.256;2024-02-15T13:33:24;34.60;36.90
33881;DHT22;20172;47.530;10.256;2024-02-15T13:35:51;34.10;37.30
33881;DHT22;20172;47.530;10.256;2024-02-15T13:38:17;33.50;37.50
33881;DHT22;20172;47.530;10.256;2024-02-15T13:40:48;32.80;38.40
33881;DHT22;20172;47.530;10.256;2024-02-15T13:43:16;32.30;39.30
33881;DHT22;20172;47.530;10.256;2024-02-15T13:45:42;31.90;39.70
33881;DHT22;20172;47.530;10.256;2024-02-15T13:48:09;31.30;40.40
33881;DHT22;20172;47.530;10.256;2024-02-15T13:50:36;30.50;41.10
33881;DHT22;20172;47.530;10.256;2024-02-15T13:53:02;29.70;41.30
33881;DHT22;20172;47.530;10.256;2024-02-15T13:55:28;28.80;41.60
33881;DHT22;20172;47.530;10.256;2024-02-15T13:57:54;28.10;42.40
33881;DHT22;20172;47.530;10.256;2024-02-15T14:00:24;27.50;42.90
33881;DHT22;20172;47.530;10.256;2024-02-15T14:02:55;26.90;43.90
33881;DHT22;20172;47.530;10.256;2024-02-15T14:05:22;26.50;44.00
33881;DHT22;20172;47.530;10.256;2024-02-15T14:07:51;26.10;44.60
33881;DHT22;20172;47.530;10.256;2024-02-15T14:10:20;25.80;45.00
33881;DHT22;20172;47.530;10.256;2024-02-15T14:12:46;25.40;45.50
33881;DHT22;20172;47.530;10.256;2024-02-15T14:15:12;25.20;45.60
33881;DHT22;20172;47.530;10.256;2024-02-15T14:17:38;25.00;46.10
33881;DHT22;20172;47.530;10.256;2024-02-15T14:20:04;24.70;46.20
33881;DHT22;20172;47.530;10.256;2024-02-15T14:22:34;24.40;46.20
33881;DHT22;20172;47.530;10.256;2024-02-15T14:25:00;24.20;46.90
33881;DHT22;20172;47.530;10.256;2024-02-15T14:27:25;23.90;47.20
33881;DHT22;20172;47.530;10.256;2024-02-15T14:29:51;23.60;47.30
33881;DHT22;20172;47.530;10.256;2024-02-15T14:32:35;23.40;47.60
33881;DHT22;20172;47.530;10.256;2024-02-15T14:35:19;23.10;47.70
33881;DHT22;20172;47.530;10.256;2024-02-15T14:37:46;22.70;49.30
33881;DHT22;20172;47.530;10.256;2024-02-15T14:40:12;22.40;50.80
33881;DHT22;20172;47.530;10.256;2024-02-15T14:42:40;22.30;52.00
33881;DHT22;20172;47.530;10.256;2024-02-15T14:45:09;22.10;53.30
33881;DHT22;20172;47.530;10.256;2024-02-15T14:47:35;21.90;54.70
33881;DHT22;20172;47.530;10.256;2024-02-15T14:50:01;21.60;55.70
33881;DHT22;20172;47.530;10.256;2024-02-15T14:52:27;21.40;56.20
33881;DHT22;20172;47.530;10.256;2024-02-15T14:54:53;21.30;56.90
33881;DHT22;20172;47.530;10.256;2024-02-15T14:57:19;21.30;57.40
33881;DHT22;20172;47.530;10.256;2024-02-15T14:59:45;21.20;57.70
33881;DHT22;20172;47.530;10.256;2024-02-15T15:02:10;21.10;58.20
33881;DHT22;20172;47.530;10.256;2024-02-15T15:04:36;21.00;58.70
33881;DHT22;20172;47.530;10.256;2024-02-15T15:07:21;20.80;59.10
33881;DHT22;20172;47.530;10.256;2024-02-15T15:10:06;20.70;59.20
33881;DHT22;20172;47.530;10.256;2024-02-15T15:12:50;20.60;58.80
33881;DHT22;20172;47.530;10.256;2024-02-15T15:15:15;20.40;58.30
33881;DHT22;20172;47.530;10.256;2024-02-15T15:17:45;20.20;58.70
33881;DHT22;20172;47.530;10.256;2024-02-15T15:20:11;20.00;59.00
33881;DHT22;20172;47.530;10.256;2024-02-15T15:22:37;19.80;59.60
33881;DHT22;20172;47.530;10.256;2024-02-15T15:25:02;19.50;60.10
33881;DHT22;20172;47.530;10.256;2024-02-15T15:27:29;19.40;60.60
33881;DHT22;20172;47.530;10.256;2024-02-15T15:29:54;19.20;61.30
33881;DHT22;20172;47.530;10.256;2024-02-15T15:32:20;19.10;62.10
33881;DHT22;20172;47.530;10.256;2024-02-15T15:34:46;18.90;62.80
33881;DHT22;20172;47.530;10.256;2024-02-15T15:37:11;18.90;63.60